Você está na página 1de 5

Temperature and Relative Humidity Test Study Run 2- Datalogger Data DL1-WH09

Relative Humidity Less Than or Equal to


Temperature Range 20 ºC - 25 ºC
Date/Time Start Date/Time Finish 65%
Maximum Minimum Average Maximum Minimum Average
11-Jul-19 / 10:21:55 am 13-Ago-19 / 2:51:55 pm 24.9 ºC 21.4 ºC 21.9 ºC 58.8 % 53.4 % 56.1 %

11-Jul-19 / 10:21:55 am 12-Jul-19 / 10:36:55 am 24.9 ºC 21.6 ºC 22.0 ºC 57.0 % 53.4 % 55.7 %
12-Jul-19 / 10:21:55 am 13-Jul-19 / 10:36:55 am 22.4 ºC 21.6 ºC 21.9 ºC 56.9 % 55.1 % 55.8 %
13-Jul-19 / 10:21:55 am 14-Jul-19 / 10:36:55 am 22.1 ºC 21.8 ºC 22.0 ºC 57.6 % 56.0 % 56.8 %
14-Jul-19 / 10:21:55 am 15-Jul-19 / 10:36:55 am 22.2 ºC 21.6 ºC 21.8 ºC 57.4 % 54.4 % 55.8 %
15-Jul-19 / 10:21:55 am 16-Jul-19 / 10:36:55 am 22.4 ºC 21.6 ºC 22.0 ºC 58.2 % 55.2 % 56.5 %
16-Jul-19 / 10:21:55 am 17-Jul-19 / 10:36:55 am 22.6 ºC 21.6 ºC 22.0 ºC 58.1 % 54.5 % 56.0 %
17-Jul-19 / 10:21:55 am 18-Jul-19 / 10:36:55 am 22.1 ºC 21.4 ºC 21.8 ºC 56.9 % 55.2 % 56.0 %
18-Jul-19 / 10:21:55 am 19-Jul-19 / 10:36:55 am 22.2 ºC 21.6 ºC 21.9 ºC 57.1 % 55.1 % 56.1 %
19-Jul-19 / 10:21:55 am 20-Jul-19 / 10:36:55 am 22.0 ºC 21.6 ºC 21.8 ºC 57.9 % 55.3 % 56.1 %
20-Jul-19 / 10:21:55 am 21-Jul-19 / 10:36:55 am 22.1 ºC 21.4 ºC 21.8 ºC 56.8 % 54.8 % 55.9 %
21-Jul-19 / 10:21:55 am 22-Jul-19 / 10:36:55 am 21.9 ºC 21.6 ºC 21.7 ºC 57.0 % 54.6 % 55.8 %
22-Jul-19 / 10:21:55 am 23-Jul-19 / 10:36:55 am 22.4 ºC 21.5 ºC 22.0 ºC 57.0 % 54.6 % 55.7 %
23-Jul-19 / 10:21:55 am 24-Jul-19 / 10:36:55 am 22.6 ºC 21.6 ºC 22.1 ºC 56.9 % 54.5 % 55.6 %
24-Jul-19 / 10:21:55 am 25-Jul-19 / 10:36:55 am 22.6 ºC 21.5 ºC 22.0 ºC 57.0 % 54.5 % 55.6 %
25-Jul-19 / 10:21:55 am 26-Jul-19 / 10:36:55 am 22.2 ºC 21.5 ºC 21.9 ºC 57.6 % 55.8 % 56.8 %
26-Jul-19 / 10:21:55 am 27-Jul-19 / 10:36:55 am 22.3 ºC 21.6 ºC 21.9 ºC 57.8 % 56.4 % 56.9 %
27-Jul-19 / 10:21:55 am 28-Jul-19 / 10:36:55 am 22.3 ºC 21.5 ºC 21.9 ºC 57.8 % 55.7 % 56.5 %
28-Jul-19 / 10:21:55 am 29-Jul-19 / 10:36:55 am 22.3 ºC 21.6 ºC 21.9 ºC 56.6 ºC 55.3 % 55.8 %
29-Jul-19 / 10:21:55 am 30-Jul-19 / 10:36:55 am 22.1 ºC 21.6 ºC 21.8 ºC 57.4 % 55.2 % 56.2 %
30-Jul-19 / 10:21:55 am 31-Jul-19 / 10:36:55 am 22.0 ºC 21.6 ºC 21.8 ºC 56.7 % 55.4 % 56.0 %
Temperature and Relative Humidity Test Study Run 2- Datalogger Data DL1-WH09
Relative Humidity Less Than or Equal to
Temperature Range 20 ºC - 25 ºC
Date/Time Start Date/Time Finish 65%
Maximum Minimum Average Maximum Minimum Average
31-Jul-19 / 10:21:55 am 1-Ago-19 / 10:36:55 am 22.1 ºC 21.5 ºC 21.8 ºC 58.3 % 55.0 % 56.0 %
1-Ago-19 / 10:21:55 am 2-Ago-19 / 10:36:55 am 22.3 ºC 21.6 ºC 21.9 ºC 58.8 % 55.9 % 56.9 %
2-Ago-19 / 10:21:55 am 3-Ago-19 / 10:36:55 am 22.4 ºC 21.8 ºC 22.0 ºC 58.3 % 55.6 % 56.8 %
3-Ago-19 / 10:21:55 am 4-Ago-19 / 10:36:55 am 22.4 ºC 21.8 ºC 22.0 ºC 56.8 % 55.5 % 56.0 %
4-Ago-19 / 10:21:55 am 5-Ago-19 / 10:36:55 am 22.0 ºC 21.7 ºC 21.8 ºC 56.5 % 54.9 % 55.9 %
5-Ago-19 / 10:21:55 am 6-Ago-19 / 10:36:55 am 22.7 ºC 21.6 ºC 22.1 ºC 57.3 % 54.6 % 56.0 %
6-Ago-19 / 10:21:55 am 7-Ago-19 / 10:36:55 am 22.3 ºC 21.6 ºC 21.9 ºC 57.3 % 55.3 % 56.2 %
7-Ago-19 / 10:21:55 am 8-Ago-19 / 10:36:55 am 22.3 ºC 21.6 ºC 21.9 ºC 58.1 % 55.1 % 56.4 %
8-Ago-19 / 10:21:55 am 9-Ago-19 / 10:36:55 am 22.6 ºC 21.7 ºC 22.1 ºC 57.9 % 55.2 % 56.3 %
9-Ago-19 / 10:21:55 am 10-Ago-19 / 10:36:55 am 22.6 ºC 21.7 ºC 22.1 ºC 57.3 % 55.8 % 56.6 %
10-Ago-19 / 10:21:55 am 11-Ago-19 / 10:36:55 am 22.4 ºC 21.8 ºC 22.0 ºC 56.6 % 54.4 % 55.3 %
11-Ago-19 / 10:21:55 am 12-Ago-19 / 10:36:55 am 22.2 ºC 21.7 ºC 21.9 ºC 56.0 % 54.5 % 55.1 %
12-Ago-19 / 10:21:55 am 13-Ago-19 / 2:51:55 pm 22.6 ºC 21.6 ºC 22.1 ºC 58.0 % 55.3 % 56.8 %
Intentionally Left Blank
Temperature and Relative Humidity Test Study Run 2- Datalogger Data DL2-WH01
Relative Humidity Less Than or Equal to
Temperature Range 20 ºC - 25 ºC
Date/Time Start Date/Time Finish 65%
Maximum Minimum Average Maximum Minimum Average
11-Jul-19 / 10:23:28 am 13-Ago-19 / 2:53:28 pm 24.6 ºC 21.4 ºC 21.8 ºC 59.2 % 50.5 % 56.1 %

11-Jul-19 / 10:23:28 am 12-Jul-19 / 10:38:28 am 24.6 ºC 21.6 ºC 21.9 ºC 57.2 % 50.5 % 55.7 %
12-Jul-19 / 10:23:28 am 13-Jul-19 / 10:38:28 am 22.1 ºC 21.7 ºC 21.8 ºC 57.5 % 54.8 % 56.0 %
13-Jul-19 / 10:23:28 am 14-Jul-19 / 10:38:28 am 21.9 ºC 21.8 ºC 21.9 ºC 58.1 % 55.7 % 56.5 %
14-Jul-19 / 10:23:28 am 15-Jul-19 / 10:38:28 am 22.1 ºC 21.6 ºC 21.8 ºC 57.6 % 54.3 % 55.8 %
15-Jul-19 / 10:23:28 am 16-Jul-19 / 10:38:28 am 22.2 ºC 21.7 ºC 21.9 ºC 58.5 % 54.8 % 56.4 %
16-Jul-19 / 10:23:28 am 17-Jul-19 / 10:38:28 am
17-Jul-19 / 10:23:28 am 18-Jul-19 / 10:38:28 am
18-Jul-19 / 10:23:28 am 19-Jul-19 / 10:38:28 am
19-Jul-19 / 10:23:28 am 20-Jul-19 / 10:38:28 am
20-Jul-19 / 10:23:28 am 21-Jul-19 / 10:38:28 am
21-Jul-19 / 10:23:28 am 22-Jul-19 / 10:38:28 am
22-Jul-19 / 10:23:28 am 23-Jul-19 / 10:38:28 am
23-Jul-19 / 10:23:28 am 24-Jul-19 / 10:38:28 am
24-Jul-19 / 10:23:28 am 25-Jul-19 / 10:38:28 am
25-Jul-19 / 10:23:28 am 26-Jul-19 / 10:38:28 am
26-Jul-19 / 10:23:28 am 27-Jul-19 / 10:38:28 am
27-Jul-19 / 10:23:28 am 28-Jul-19 / 10:38:28 am
28-Jul-19 / 10:23:28 am 29-Jul-19 / 10:38:28 am
29-Jul-19 / 10:23:28 am 30-Jul-19 / 10:38:28 am
30-Jul-19 / 10:23:28 am 31-Jul-19 / 10:38:28 am
Temperature and Relative Humidity Test Study Run 2- Datalogger Data DL2-WH01
Relative Humidity Less Than or Equal to
Temperature Range 20 ºC - 25 ºC
Date/Time Start Date/Time Finish 65%
Maximum Minimum Average Maximum Minimum Average
31-Jul-19 / 10:23:28 am 1-Ago-19 / 10:38:28 am
1-Ago-19 / 10:23:28 am 2-Ago-19 / 10:38:28 am
2-Ago-19 / 10:23:28 am 3-Ago-19 / 10:38:28 am
3-Ago-19 / 10:23:28 am 4-Ago-19 / 10:38:28 am
4-Ago-19 / 10:23:28 am 5-Ago-19 / 10:38:28 am
5-Ago-19 / 10:23:28 am 6-Ago-19 / 10:38:28 am
6-Ago-19 / 10:23:28 am 7-Ago-19 / 10:38:28 am
7-Ago-19 / 10:23:28 am 8-Ago-19 / 10:38:28 am
8-Ago-19 / 10:23:28 am 9-Ago-19 / 10:38:28 am
9-Ago-19 / 10:23:28 am 10-Ago-19 / 10:38:28 am
10-Ago-19 / 10:23:28 am 11-Ago-19 / 10:38:28 am
11-Ago-19 / 10:23:28 am 12-Ago-19 / 10:38:28 am
12-Ago-19 / 10:23:28 am 13-Ago-19 / 2:51:55 pm